Time;durP1;ratioP1;P1;durP2;ratioP2;P2;SDS_P1;SDS_P2;PMS_P1;PMS_P2;Temp;Humidity;BMP_temperature;BMP_pressure;BME280_temperature;BME280_humidity;BME280_pressure;Samples;Min_cycle;Max_cycle;Signal;HPM_P1;HPM_P2
2021/11/23 00:02:12;;;;;;;19.73;10.30;;;;;;;;;;5091975;28;20069;-67
2021/11/23 00:04:38;;;;;;;16.40;10.77;;;;;;;;;;5092080;28;20024;-77
2021/11/23 00:07:23;;;;;;;21.50;10.60;;;;;;;;;;5091938;28;20421;-70
2021/11/23 00:09:49;;;;;;;17.08;10.75;;;;;;;;;;5092012;28;20086;-75
2021/11/23 00:12:15;;;;;;;21.23;10.40;;;;;;;;;;5092280;28;20023;-77
2021/11/23 00:14:41;;;;;;;18.73;9.60;;;;;;;;;;5091936;28;20522;-64
2021/11/23 00:17:07;;;;;;;15.45;10.07;;;;;;;;;;5091774;28;20047;-72
2021/11/23 00:19:33;;;;;;;19.05;10.63;;;;;;;;;;5091556;28;20046;-68
2021/11/23 00:21:59;;;;;;;19.30;10.55;;;;;;;;;;5091589;28;20550;-76
2021/11/23 00:24:25;;;;;;;17.90;9.73;;;;;;;;;;5091592;28;20463;-68
2021/11/23 00:26:51;;;;;;;16.67;10.27;;;;;;;;;;5073185;28;20036;-78
2021/11/23 00:29:17;;;;;;;15.05;8.75;;;;;;;;;;5091987;28;20505;-64
2021/11/23 00:31:43;;;;;;;18.77;10.32;;;;;;;;;;5091325;28;20445;-63
2021/11/23 00:34:09;;;;;;;17.23;9.80;;;;;;;;;;5093066;28;20047;-72
2021/11/23 00:36:35;;;;;;;17.30;9.82;;;;;;;;;;5093327;28;20042;-63
2021/11/23 00:39:01;;;;;;;17.40;10.07;;;;;;;;;;5112016;28;20019;-69
2021/11/23 00:41:27;;;;;;;14.60;9.38;;;;;;;;;;5111396;28;20046;-69
2021/11/23 00:43:53;;;;;;;15.45;9.73;;;;;;;;;;5111446;28;20102;-77
2021/11/23 00:46:19;;;;;;;16.65;9.40;;;;;;;;;;5110630;28;20036;-77
2021/11/23 00:48:45;;;;;;;15.88;9.18;;;;;;;;;;5111553;28;20031;-78
2021/11/23 00:51:12;;;;;;;16.88;9.35;;;;;;;;;;5111461;28;20031;-77
2021/11/23 00:53:39;;;;;;;15.65;9.85;;;;;;;;;;5111862;28;20020;-78
2021/11/23 00:56:05;;;;;;;15.02;9.38;;;;;;;;;;5095943;28;20051;-75
2021/11/23 00:58:32;;;;;;;16.25;8.80;;;;;;;;;;5095926;28;20077;-75
2021/11/23 01:00:58;;;;;;;21.92;9.50;;;;;;;;;;5097832;28;20024;-68
2021/11/23 01:03:24;;;;;;;17.48;9.27;;;;;;;;;;5107981;28;20066;-76
2021/11/23 01:05:50;;;;;;;19.30;9.23;;;;;;;;;;5112021;28;20502;-63
2021/11/23 01:08:17;;;;;;;17.13;9.13;;;;;;;;;;5078449;28;20542;-63
2021/11/23 01:10:44;;;;;;;16.45;8.88;;;;;;;;;;5100672;28;20462;-70
2021/11/23 01:13:10;;;;;;;16.42;9.43;;;;;;;;;;5100920;28;20035;-73
2021/11/23 01:15:37;;;;;;;14.48;9.15;;;;;;;;;;5094985;28;20059;-71
2021/11/23 01:18:04;;;;;;;22.00;9.57;;;;;;;;;;5094921;28;20560;-64
2021/11/23 01:20:30;;;;;;;15.07;8.95;;;;;;;;;;5095473;28;20052;-72
2021/11/23 01:22:57;;;;;;;18.40;10.30;;;;;;;;;;5076651;28;20038;-70
2021/11/23 01:25:23;;;;;;;15.48;9.02;;;;;;;;;;5094755;28;20445;-74
2021/11/23 01:27:50;;;;;;;14.30;8.63;;;;;;;;;;5076808;28;20067;-66
2021/11/23 01:30:16;;;;;;;12.23;8.25;;;;;;;;;;5095044;28;20425;-74
2021/11/23 01:32:42;;;;;;;14.95;9.20;;;;;;;;;;5094882;28;20448;-62
2021/11/23 01:35:09;;;;;;;15.23;9.35;;;;;;;;;;5094877;28;20357;-71
2021/11/23 01:37:36;;;;;;;17.52;8.75;;;;;;;;;;5094990;28;20985;-71
2021/11/23 01:40:03;;;;;;;16.50;9.98;;;;;;;;;;5076723;28;20016;-68
2021/11/23 01:42:29;;;;;;;17.17;9.00;;;;;;;;;;5094751;28;20059;-71
2021/11/23 01:44:55;;;;;;;16.20;8.93;;;;;;;;;;5094861;28;20020;-69
2021/11/23 01:47:22;;;;;;;15.65;9.45;;;;;;;;;;5094641;28;20031;-70
2021/11/23 01:49:48;;;;;;;16.42;9.40;;;;;;;;;;5094654;28;20102;-71
2021/11/23 01:52:14;;;;;;;14.23;9.45;;;;;;;;;;5076846;28;20433;-69
2021/11/23 01:54:41;;;;;;;16.38;9.00;;;;;;;;;;5094783;28;20024;-72
2021/11/23 01:57:07;;;;;;;14.27;8.98;;;;;;;;;;5094469;28;20024;-70
2021/11/23 01:59:33;;;;;;;13.90;8.95;;;;;;;;;;5094535;28;20521;-71
2021/11/23 02:01:59;;;;;;;14.85;8.68;;;;;;;;;;5094553;28;20077;-67
2021/11/23 02:04:25;;;;;;;15.52;9.80;;;;;;;;;;5094566;28;20376;-67
2021/11/23 02:06:51;;;;;;;17.45;9.40;;;;;;;;;;5093339;28;20032;-68
2021/11/23 02:09:18;;;;;;;22.08;8.73;;;;;;;;;;5093995;28;20024;-73
2021/11/23 02:11:45;;;;;;;13.82;9.30;;;;;;;;;;5094385;28;20468;-76
2021/11/23 02:14:11;;;;;;;13.75;8.77;;;;;;;;;;5094546;28;20021;-80
2021/11/23 02:16:37;;;;;;;16.38;9.35;;;;;;;;;;5094220;28;20045;-80
2021/11/23 02:19:04;;;;;;;15.23;8.63;;;;;;;;;;5075775;28;20426;-80
2021/11/23 02:21:30;;;;;;;14.27;9.00;;;;;;;;;;5094370;28;20382;-72
2021/11/23 02:23:58;;;;;;;15.18;10.00;;;;;;;;;;5094691;28;20028;-73
2021/11/23 02:26:24;;;;;;;14.02;9.63;;;;;;;;;;5094406;28;20028;-76
2021/11/23 02:28:51;;;;;;;15.50;9.18;;;;;;;;;;5076523;28;20421;-69
2021/11/23 02:31:18;;;;;;;12.10;8.57;;;;;;;;;;5075910;28;20028;-70
2021/11/23 02:33:44;;;;;;;14.13;9.25;;;;;;;;;;5100937;28;20015;-70
2021/11/23 02:36:11;;;;;;;15.18;9.05;;;;;;;;;;5116969;28;20487;-67
2021/11/23 02:38:38;;;;;;;13.05;8.27;;;;;;;;;;5095641;28;20456;-68
2021/11/23 02:41:06;;;;;;;14.68;8.75;;;;;;;;;;5113750;28;20502;-75
2021/11/23 02:43:32;;;;;;;15.50;9.05;;;;;;;;;;5103060;28;20057;-82
2021/11/23 02:45:58;;;;;;;13.55;8.75;;;;;;;;;;5093614;28;20108;-80
2021/11/23 02:48:24;;;;;;;15.70;9.20;;;;;;;;;;5093864;28;20028;-79
2021/11/23 02:51:15;;;;;;;12.75;8.15;;;;;;;;;;5093605;28;20019;-81
2021/11/23 02:53:39;;;;;;;13.13;8.52;;;;;;;;;;5093540;28;20067;-81
2021/11/23 02:56:06;;;;;;;12.52;8.40;;;;;;;;;;5075411;28;20624;-79
2021/11/23 02:58:33;;;;;;;15.23;8.25;;;;;;;;;;5093486;28;20024;-77
2021/11/23 03:01:01;;;;;;;14.27;8.32;;;;;;;;;;5093570;28;20021;-80
2021/11/23 03:03:28;;;;;;;12.40;7.32;;;;;;;;;;5093475;28;20065;-77
2021/11/23 03:05:55;;;;;;;17.38;7.85;;;;;;;;;;5093389;28;20031;-74
2021/11/23 03:08:22;;;;;;;13.52;7.93;;;;;;;;;;5093178;28;20031;-73
2021/11/23 03:10:48;;;;;;;13.13;8.05;;;;;;;;;;5093066;28;20024;-72
2021/11/23 03:13:14;;;;;;;13.25;7.82;;;;;;;;;;5092935;28;20123;-73
2021/11/23 03:15:40;;;;;;;13.45;7.55;;;;;;;;;;5092908;28;20032;-74
2021/11/23 03:18:09;;;;;;;11.52;7.50;;;;;;;;;;5091631;28;20114;-74
2021/11/23 03:20:36;;;;;;;11.63;7.60;;;;;;;;;;5074464;28;20055;-69
2021/11/23 03:23:03;;;;;;;10.27;6.88;;;;;;;;;;5092730;28;20051;-66
2021/11/23 03:25:30;;;;;;;15.40;6.78;;;;;;;;;;5092634;28;20352;-71
2021/11/23 03:27:56;;;;;;;11.45;7.10;;;;;;;;;;5092668;28;20143;-73
2021/11/23 03:30:24;;;;;;;17.83;7.32;;;;;;;;;;5092513;28;20020;-70
2021/11/23 03:32:51;;;;;;;13.75;7.10;;;;;;;;;;5092482;28;20024;-72
2021/11/23 03:35:18;;;;;;;14.88;6.68;;;;;;;;;;5092519;28;20020;-73
2021/11/23 03:37:45;;;;;;;10.65;6.78;;;;;;;;;;5074328;28;20043;-74
2021/11/23 03:40:11;;;;;;;10.38;6.43;;;;;;;;;;5092613;28;20172;-67
2021/11/23 03:42:37;;;;;;;11.20;6.60;;;;;;;;;;5092569;28;20397;-80
2021/11/23 03:45:04;;;;;;;10.50;6.63;;;;;;;;;;5092860;28;20031;-76
2021/11/23 03:47:33;;;;;;;10.13;6.38;;;;;;;;;;5092859;28;20083;-79
2021/11/23 03:49:59;;;;;;;10.98;6.82;;;;;;;;;;5092872;28;20016;-75
2021/11/23 03:52:26;;;;;;;9.95;6.60;;;;;;;;;;5092715;28;20035;-73
2021/11/23 03:54:52;;;;;;;11.15;6.45;;;;;;;;;;5092367;28;20479;-75
2021/11/23 03:57:18;;;;;;;9.77;5.85;;;;;;;;;;5074175;28;20024;-71
2021/11/23 03:59:48;;;;;;;10.35;6.50;;;;;;;;;;5110159;27;20023;-63
2021/11/23 04:02:18;;;;;;;10.57;6.22;;;;;;;;;;5112630;28;20092;-74
2021/11/23 04:04:44;;;;;;;10.07;6.07;;;;;;;;;;5112504;28;20089;-65
2021/11/23 04:07:11;;;;;;;9.57;6.25;;;;;;;;;;5112481;28;20035;-73
2021/11/23 04:09:37;;;;;;;10.77;5.80;;;;;;;;;;5112627;28;20120;-66
2021/11/23 04:12:03;;;;;;;9.10;5.78;;;;;;;;;;5112193;28;20026;-71
2021/11/23 04:14:29;;;;;;;9.45;5.63;;;;;;;;;;5112152;28;20020;-73
2021/11/23 04:16:56;;;;;;;10.88;5.72;;;;;;;;;;5112089;28;20031;-73
2021/11/23 04:19:22;;;;;;;8.32;5.25;;;;;;;;;;5112142;28;20023;-70
2021/11/23 04:21:48;;;;;;;9.35;5.65;;;;;;;;;;5111958;28;20020;-68
2021/11/23 04:24:14;;;;;;;9.18;5.82;;;;;;;;;;5111975;28;20053;-73
2021/11/23 04:26:40;;;;;;;11.30;6.35;;;;;;;;;;5092347;28;20085;-69
2021/11/23 04:29:06;;;;;;;8.68;5.40;;;;;;;;;;5111614;28;20020;-72
2021/11/23 04:31:32;;;;;;;10.10;5.18;;;;;;;;;;5112294;28;20487;-73
2021/11/23 04:33:58;;;;;;;10.02;6.05;;;;;;;;;;5112418;28;20028;-79
2021/11/23 04:36:25;;;;;;;19.83;5.60;;;;;;;;;;5112187;28;20023;-73
2021/11/23 04:38:51;;;;;;;9.35;5.57;;;;;;;;;;5111643;28;20047;-69
2021/11/23 04:41:17;;;;;;;9.63;5.55;;;;;;;;;;5111659;28;20044;-68
2021/11/23 04:43:43;;;;;;;10.80;5.20;;;;;;;;;;5093463;28;20110;-67
2021/11/23 04:46:09;;;;;;;8.35;5.20;;;;;;;;;;5111928;28;20039;-72
2021/11/23 04:48:35;;;;;;;8.88;4.93;;;;;;;;;;5111807;28;20023;-75
2021/11/23 04:51:01;;;;;;;11.52;5.97;;;;;;;;;;5112102;28;20047;-65
2021/11/23 04:53:27;;;;;;;19.30;5.50;;;;;;;;;;5112113;28;20023;-66
2021/11/23 04:55:53;;;;;;;8.88;5.25;;;;;;;;;;5111719;28;20032;-66
2021/11/23 04:58:19;;;;;;;13.48;5.30;;;;;;;;;;5111708;28;20521;-65
2021/11/23 05:00:45;;;;;;;11.75;5.50;;;;;;;;;;5111622;28;20019;-66
2021/11/23 05:03:11;;;;;;;11.85;5.50;;;;;;;;;;5111540;28;20031;-71
2021/11/23 05:05:38;;;;;;;12.80;5.60;;;;;;;;;;5111427;28;20027;-73
2021/11/23 05:08:04;;;;;;;17.25;5.93;;;;;;;;;;5111554;28;20043;-69
2021/11/23 05:10:30;;;;;;;16.15;5.80;;;;;;;;;;5111492;28;20081;-71
2021/11/23 05:12:56;;;;;;;8.55;5.10;;;;;;;;;;5093333;28;20023;-65
2021/11/23 05:15:22;;;;;;;11.23;4.90;;;;;;;;;;5111499;28;20020;-72
2021/11/23 05:17:49;;;;;;;10.43;4.82;;;;;;;;;;5111241;28;20099;-70
2021/11/23 05:20:15;;;;;;;8.95;5.00;;;;;;;;;;5092995;28;20043;-68
2021/11/23 05:22:41;;;;;;;11.55;5.15;;;;;;;;;;5111639;28;20030;-72
2021/11/23 05:25:07;;;;;;;8.48;5.50;;;;;;;;;;5111405;28;20494;-74
2021/11/23 05:27:34;;;;;;;11.27;4.90;;;;;;;;;;5111535;28;20031;-69
2021/11/23 05:30:00;;;;;;;9.43;4.72;;;;;;;;;;5111405;28;20027;-69
2021/11/23 05:32:27;;;;;;;11.45;5.32;;;;;;;;;;5093049;28;20024;-72
2021/11/23 05:34:53;;;;;;;8.80;5.15;;;;;;;;;;5110964;28;20478;-73
2021/11/23 05:37:19;;;;;;;9.55;5.30;;;;;;;;;;5111386;28;20049;-71
2021/11/23 05:39:45;;;;;;;9.32;4.75;;;;;;;;;;5111561;28;20024;-70
2021/11/23 05:42:11;;;;;;;11.02;4.70;;;;;;;;;;5095695;28;20047;-68
2021/11/23 05:44:37;;;;;;;10.30;5.20;;;;;;;;;;5096057;28;20090;-66
2021/11/23 05:47:04;;;;;;;8.95;4.72;;;;;;;;;;5094532;28;20035;-70
2021/11/23 05:49:30;;;;;;;10.20;5.20;;;;;;;;;;5094660;28;20032;-74
2021/11/23 05:51:56;;;;;;;9.73;5.00;;;;;;;;;;5076240;28;20082;-70
2021/11/23 05:54:22;;;;;;;9.27;5.85;;;;;;;;;;5094503;28;20509;-71
2021/11/23 05:56:48;;;;;;;10.48;4.93;;;;;;;;;;5094481;28;20107;-68
2021/11/23 05:59:15;;;;;;;8.98;4.30;;;;;;;;;;5094545;28;20110;-69
2021/11/23 06:01:41;;;;;;;11.43;4.93;;;;;;;;;;5094239;28;20024;-70
2021/11/23 06:04:07;;;;;;;11.60;4.72;;;;;;;;;;5094365;28;20082;-71
2021/11/23 06:06:33;;;;;;;10.55;4.50;;;;;;;;;;5075901;28;20044;-73
2021/11/23 06:08:59;;;;;;;8.30;4.88;;;;;;;;;;5076243;28;20032;-68
2021/11/23 06:11:25;;;;;;;8.40;4.88;;;;;;;;;;5094449;28;20468;-72
2021/11/23 06:13:52;;;;;;;9.52;5.03;;;;;;;;;;5094229;28;20023;-73
2021/11/23 06:16:18;;;;;;;8.98;4.60;;;;;;;;;;5076173;28;20410;-72
2021/11/23 06:18:45;;;;;;;14.73;4.88;;;;;;;;;;5094094;28;20020;-73
2021/11/23 06:21:11;;;;;;;10.18;5.30;;;;;;;;;;5093866;28;20095;-72
2021/11/23 06:23:37;;;;;;;7.25;4.47;;;;;;;;;;5093802;28;20020;-67
2021/11/23 06:26:04;;;;;;;8.75;4.60;;;;;;;;;;5076347;28;20127;-70
2021/11/23 06:28:31;;;;;;;9.38;5.00;;;;;;;;;;5093771;28;20068;-68
2021/11/23 06:30:57;;;;;;;7.88;4.63;;;;;;;;;;5093854;28;20024;-73
2021/11/23 06:33:24;;;;;;;8.65;5.13;;;;;;;;;;5075394;28;20012;-68
2021/11/23 06:35:50;;;;;;;10.40;4.93;;;;;;;;;;5093723;28;20085;-71
2021/11/23 06:38:16;;;;;;;8.80;4.70;;;;;;;;;;5093646;28;20012;-72
2021/11/23 06:40:42;;;;;;;8.07;4.47;;;;;;;;;;5093436;28;20031;-70
2021/11/23 06:43:10;;;;;;;11.10;5.07;;;;;;;;;;5099717;28;20062;-74
2021/11/23 06:45:36;;;;;;;8.02;4.95;;;;;;;;;;5114020;28;20024;-71
2021/11/23 06:48:03;;;;;;;8.95;5.18;;;;;;;;;;5113998;28;20106;-74
2021/11/23 06:50:32;;;;;;;8.48;4.85;;;;;;;;;;5095767;28;20055;-63
2021/11/23 06:53:02;;;;;;;8.93;4.95;;;;;;;;;;5095597;28;20027;-74
2021/11/23 06:55:28;;;;;;;8.57;4.38;;;;;;;;;;5114024;28;20103;-65
2021/11/23 06:57:55;;;;;;;10.10;5.10;;;;;;;;;;5113723;28;20016;-69
2021/11/23 07:00:21;;;;;;;8.27;5.20;;;;;;;;;;5113715;28;20478;-70
2021/11/23 07:02:47;;;;;;;9.15;4.82;;;;;;;;;;5113568;28;20043;-72
2021/11/23 07:05:14;;;;;;;8.55;4.80;;;;;;;;;;5113399;28;20030;-72
2021/11/23 07:07:40;;;;;;;10.02;5.00;;;;;;;;;;5095157;28;20082;-68
2021/11/23 07:10:07;;;;;;;10.88;4.88;;;;;;;;;;5113393;28;20072;-70
2021/11/23 07:12:33;;;;;;;8.68;4.85;;;;;;;;;;5113225;28;20020;-75
2021/11/23 07:14:59;;;;;;;8.73;4.72;;;;;;;;;;5113356;28;20080;-73
2021/11/23 07:17:25;;;;;;;8.43;4.82;;;;;;;;;;5113226;28;20072;-71
2021/11/23 07:19:52;;;;;;;6.93;4.15;;;;;;;;;;5113364;28;20482;-71
2021/11/23 07:22:18;;;;;;;8.15;3.97;;;;;;;;;;5094624;28;20027;-71
2021/11/23 07:24:44;;;;;;;8.60;4.40;;;;;;;;;;5113007;28;20026;-72
2021/11/23 07:27:10;;;;;;;8.68;4.55;;;;;;;;;;5112759;28;20063;-69
2021/11/23 07:29:37;;;;;;;7.32;3.88;;;;;;;;;;5112553;28;20441;-71
2021/11/23 07:32:04;;;;;;;8.98;4.43;;;;;;;;;;5112635;28;20024;-75
2021/11/23 07:34:30;;;;;;;11.48;4.70;;;;;;;;;;5094733;28;20020;-77
2021/11/23 07:36:56;;;;;;;27.17;4.75;;;;;;;;;;5112996;28;20315;-69
2021/11/23 07:39:22;;;;;;;11.65;4.75;;;;;;;;;;5112838;28;20030;-68
2021/11/23 07:41:48;;;;;;;7.80;4.00;;;;;;;;;;5112421;28;20176;-73
2021/11/23 07:44:14;;;;;;;9.88;4.55;;;;;;;;;;5096911;28;20024;-70
2021/11/23 07:46:41;;;;;;;14.38;4.90;;;;;;;;;;5092178;28;20032;-66
2021/11/23 07:49:07;;;;;;;10.40;4.43;;;;;;;;;;5092360;28;20417;-67
2021/11/23 07:51:33;;;;;;;10.95;4.32;;;;;;;;;;5092064;28;20022;-73
2021/11/23 07:53:59;;;;;;;11.32;4.80;;;;;;;;;;5091962;28;20467;-65
2021/11/23 07:56:26;;;;;;;10.27;4.38;;;;;;;;;;5091781;28;20046;-68
2021/11/23 07:58:52;;;;;;;12.65;5.55;;;;;;;;;;5074528;28;20413;-75
2021/11/23 08:01:18;;;;;;;18.55;4.30;;;;;;;;;;5091715;28;20025;-68
2021/11/23 08:03:44;;;;;;;8.80;4.57;;;;;;;;;;5091901;28;20020;-75
2021/11/23 08:06:11;;;;;;;7.47;4.22;;;;;;;;;;5074075;28;20038;-72
2021/11/23 08:08:37;;;;;;;14.15;4.43;;;;;;;;;;5092105;28;20031;-78
2021/11/23 08:11:04;;;;;;;7.95;4.20;;;;;;;;;;5091675;28;20042;-76
2021/11/23 08:13:30;;;;;;;12.07;4.80;;;;;;;;;;5091865;28;20035;-77
2021/11/23 08:15:56;;;;;;;11.05;4.05;;;;;;;;;;5074096;28;20109;-79
2021/11/23 08:18:22;;;;;;;9.70;4.72;;;;;;;;;;5092067;28;20090;-73
2021/11/23 08:20:48;;;;;;;9.75;4.50;;;;;;;;;;5091859;28;20023;-76
2021/11/23 08:23:15;;;;;;;8.07;4.15;;;;;;;;;;5073287;28;20024;-77
2021/11/23 08:25:41;;;;;;;8.82;4.57;;;;;;;;;;5092586;28;20043;-76
2021/11/23 08:28:07;;;;;;;9.35;4.55;;;;;;;;;;5111910;28;20065;-77
2021/11/23 08:30:33;;;;;;;9.50;4.55;;;;;;;;;;5111993;28;20503;-77
2021/11/23 08:33:00;;;;;;;7.45;3.92;;;;;;;;;;5111766;28;20471;-72
2021/11/23 08:35:26;;;;;;;10.77;5.28;;;;;;;;;;5111603;28;20072;-75
2021/11/23 08:37:52;;;;;;;7.57;4.05;;;;;;;;;;5093489;28;20115;-77
2021/11/23 08:40:18;;;;;;;12.32;4.80;;;;;;;;;;5111864;28;20100;-74
2021/11/23 08:42:44;;;;;;;57.03;6.13;;;;;;;;;;5111139;28;20418;-71
2021/11/23 08:45:11;;;;;;;20.33;5.38;;;;;;;;;;5111291;28;20031;-71
2021/11/23 08:47:38;;;;;;;19.45;5.50;;;;;;;;;;5111976;28;20095;-73
2021/11/23 08:50:05;;;;;;;13.27;5.53;;;;;;;;;;5112002;28;20024;-68
2021/11/23 08:52:32;;;;;;;17.70;5.07;;;;;;;;;;5093575;28;20035;-71
2021/11/23 08:54:58;;;;;;;9.38;4.95;;;;;;;;;;5111837;28;20539;-70
2021/11/23 08:57:24;;;;;;;11.57;4.78;;;;;;;;;;5093178;28;20024;-66
2021/11/23 08:59:51;;;;;;;9.40;4.90;;;;;;;;;;5093315;28;20031;-70
2021/11/23 09:02:18;;;;;;;40.65;6.13;;;;;;;;;;5106826;28;20034;-71
2021/11/23 09:04:44;;;;;;;17.05;4.90;;;;;;;;;;5110907;28;20573;-74
2021/11/23 09:07:13;;;;;;;9.80;5.15;;;;;;;;;;5111965;28;20032;-77
2021/11/23 09:09:42;;;;;;;8.35;4.95;;;;;;;;;;5112133;28;20470;-77
2021/11/23 09:12:09;;;;;;;13.18;5.38;;;;;;;;;;5112297;28;20464;-76
2021/11/23 09:14:36;;;;;;;12.75;4.88;;;;;;;;;;5112199;28;20020;-73
2021/11/23 09:17:05;;;;;;;12.43;5.00;;;;;;;;;;5116235;28;20069;-77
2021/11/23 09:19:31;;;;;;;9.20;4.95;;;;;;;;;;5116293;28;20023;-76
2021/11/23 09:21:57;;;;;;;13.55;5.00;;;;;;;;;;5116457;28;20023;-77
2021/11/23 09:24:23;;;;;;;8.30;4.22;;;;;;;;;;5097816;28;20023;-73
2021/11/23 09:26:51;;;;;;;12.35;5.43;;;;;;;;;;5115620;28;20398;-71
2021/11/23 09:29:18;;;;;;;11.95;4.68;;;;;;;;;;5115805;28;20019;-69
2021/11/23 09:31:44;;;;;;;8.65;4.50;;;;;;;;;;5116023;28;20028;-75
2021/11/23 09:34:11;;;;;;;8.38;4.32;;;;;;;;;;5115994;28;20035;-74
2021/11/23 09:36:37;;;;;;;11.20;4.55;;;;;;;;;;5115823;28;20020;-74
2021/11/23 09:39:03;;;;;;;8.20;4.10;;;;;;;;;;5115659;28;20099;-76
2021/11/23 09:41:33;;;;;;;9.77;4.55;;;;;;;;;;5115458;28;20039;-73
2021/11/23 09:43:59;;;;;;;8.43;4.03;;;;;;;;;;5115625;28;20111;-73
2021/11/23 09:46:25;;;;;;;7.90;4.10;;;;;;;;;;5115367;28;20027;-72
2021/11/23 09:48:51;;;;;;;8.15;4.40;;;;;;;;;;5115525;28;20502;-68
2021/11/23 09:51:23;;;;;;;14.30;4.60;;;;;;;;;;5097082;28;20027;-74
2021/11/23 09:53:49;;;;;;;15.17;5.30;;;;;;;;;;5115500;28;20049;-73
2021/11/23 09:56:15;;;;;;;10.07;4.95;;;;;;;;;;5115413;28;20257;-74
2021/11/23 09:58:41;;;;;;;13.15;3.97;;;;;;;;;;5115401;28;20631;-79
2021/11/23 10:01:08;;;;;;;13.00;4.63;;;;;;;;;;5115317;28;20480;-78
2021/11/23 10:03:35;;;;;;;9.70;4.68;;;;;;;;;;5113829;28;20074;-77
2021/11/23 10:06:12;;;;;;;10.77;4.50;;;;;;;;;;5115054;28;20032;-76
2021/11/23 10:08:40;;;;;;;9.07;4.13;;;;;;;;;;5115146;28;20034;-79
2021/11/23 10:11:07;;;;;;;7.93;3.85;;;;;;;;;;5115246;28;20112;-72
2021/11/23 10:13:48;;;;;;;8.52;4.30;;;;;;;;;;5115259;28;20023;-78
2021/11/23 10:16:14;;;;;;;10.80;4.43;;;;;;;;;;5115156;28;20102;-76
2021/11/23 10:18:41;;;;;;;6.88;4.07;;;;;;;;;;5114988;28;20053;-74
2021/11/23 10:21:08;;;;;;;8.98;4.95;;;;;;;;;;5115008;28;20024;-78
2021/11/23 10:23:48;;;;;;;9.52;4.90;;;;;;;;;;5096679;28;20019;-75
2021/11/23 10:26:14;;;;;;;9.13;4.45;;;;;;;;;;5114460;28;20593;-79
2021/11/23 10:28:46;;;;;;;7.13;3.90;;;;;;;;;;5114641;28;20088;-75
2021/11/23 10:31:13;;;;;;;9.38;4.30;;;;;;;;;;5096438;28;20069;-74
2021/11/23 10:33:41;;;;;;;7.32;3.80;;;;;;;;;;5114381;28;20019;-78
2021/11/23 10:36:09;;;;;;;7.20;4.15;;;;;;;;;;5114350;28;20709;-76
2021/11/23 10:38:36;;;;;;;8.65;4.47;;;;;;;;;;5114463;28;20514;-77
2021/11/23 10:41:06;;;;;;;8.80;4.68;;;;;;;;;;5114217;28;20034;-72
2021/11/23 10:43:32;;;;;;;10.85;4.60;;;;;;;;;;5096088;28;20047;-76
2021/11/23 10:45:58;;;;;;;9.82;4.93;;;;;;;;;;5114168;28;20109;-77
2021/11/23 10:48:26;;;;;;;9.10;4.97;;;;;;;;;;5114592;28;20012;-77
2021/11/23 10:50:58;;;;;;;7.95;4.32;;;;;;;;;;5114303;28;20478;-78
2021/11/23 10:53:25;;;;;;;10.75;5.28;;;;;;;;;;5114217;28;20035;-76
2021/11/23 10:55:51;;;;;;;10.07;4.57;;;;;;;;;;5114160;28;20133;-76
2021/11/23 10:58:17;;;;;;;7.05;3.78;;;;;;;;;;5114187;28;20027;-75
2021/11/23 11:00:44;;;;;;;7.40;4.45;;;;;;;;;;5114167;28;20050;-76
2021/11/23 11:03:12;;;;;;;7.90;4.20;;;;;;;;;;5095809;28;20024;-74
2021/11/23 11:05:39;;;;;;;9.75;5.10;;;;;;;;;;5114246;28;20016;-75
2021/11/23 11:08:05;;;;;;;10.75;3.92;;;;;;;;;;5114214;28;20058;-72
2021/11/23 11:10:33;;;;;;;8.68;4.03;;;;;;;;;;5114056;28;20027;-74
2021/11/23 11:13:03;;;;;;;9.95;4.28;;;;;;;;;;5114045;28;20435;-69
2021/11/23 11:15:39;;;;;;;10.80;4.18;;;;;;;;;;5113823;28;20054;-72
2021/11/23 11:18:11;;;;;;;8.50;4.03;;;;;;;;;;5113538;28;20023;-75
2021/11/23 11:20:37;;;;;;;;;;;;;;;;;;5113662;28;20094;-75
2021/11/23 11:23:05;;;;;;;7.10;3.75;;;;;;;;;;5113072;28;19904;-74
2021/11/23 11:25:52;;;;;;;8.23;3.90;;;;;;;;;;5113461;28;20505;-74
2021/11/23 11:28:35;;;;;;;6.10;3.72;;;;;;;;;;5113520;28;20024;-70
2021/11/23 11:31:06;;;;;;;6.35;3.47;;;;;;;;;;5113213;28;20031;-75
2021/11/23 11:33:32;;;;;;;6.15;3.50;;;;;;;;;;5113703;28;20028;-75
2021/11/23 11:35:58;;;;;;;7.20;3.72;;;;;;;;;;5113736;28;20028;-73
2021/11/23 11:38:28;;;;;;;7.68;3.95;;;;;;;;;;5112828;28;20093;-70
2021/11/23 11:40:54;;;;;;;8.77;4.00;;;;;;;;;;5113626;28;20016;-73
2021/11/23 11:43:20;;;;;;;7.35;3.92;;;;;;;;;;5105558;28;20062;-76
2021/11/23 11:45:48;;;;;;;9.05;3.67;;;;;;;;;;5112844;28;20117;-71
2021/11/23 11:48:33;;;;;;;9.63;3.85;;;;;;;;;;5113438;28;20027;-77
2021/11/23 11:50:59;;;;;;;9.30;3.67;;;;;;;;;;5095184;28;20472;-74
2021/11/23 11:53:29;;;;;;;7.85;3.72;;;;;;;;;;5113261;28;20011;-73
2021/11/23 11:55:56;;;;;;;8.68;3.45;;;;;;;;;;5113104;28;20015;-70
2021/11/23 11:58:40;;;;;;;8.30;3.40;;;;;;;;;;5109900;28;20024;-70
2021/11/23 12:01:29;;;;;;;5.70;2.60;;;;;;;;;;5113011;28;20039;-73
2021/11/23 12:04:04;;;;;;;5.50;2.75;;;;;;;;;;5103669;28;20058;-73
2021/11/23 12:06:49;;;;;;;6.53;3.05;;;;;;;;;;5092481;28;20036;-73
2021/11/23 12:09:26;;;;;;;4.60;2.55;;;;;;;;;;5092491;28;20063;-73
2021/11/23 12:11:53;;;;;;;5.90;2.90;;;;;;;;;;5092316;28;20048;-72
2021/11/23 12:14:21;;;;;;;4.88;2.35;;;;;;;;;;5092408;28;20022;-73
2021/11/23 12:16:53;;;;;;;5.82;2.90;;;;;;;;;;5092461;28;20031;-76
2021/11/23 12:19:26;;;;;;;8.80;3.38;;;;;;;;;;5092554;28;20134;-68
2021/11/23 12:21:54;;;;;;;5.53;2.58;;;;;;;;;;5111104;28;20135;-76
2021/11/23 12:24:32;;;;;;;5.95;2.85;;;;;;;;;;5111334;28;20027;-73
2021/11/23 12:27:07;;;;;;;8.77;3.15;;;;;;;;;;5093441;28;20027;-73
2021/11/23 12:29:33;;;;;;;8.02;4.20;;;;;;;;;;5111731;28;20431;-76
2021/11/23 12:31:59;;;;;;;7.32;3.08;;;;;;;;;;5112585;28;20065;-75
2021/11/23 12:34:25;;;;;;;6.97;2.97;;;;;;;;;;5112345;28;20051;-75
2021/11/23 12:36:56;;;;;;;6.93;3.15;;;;;;;;;;5112472;28;20027;-75
2021/11/23 12:39:42;;;;;;;6.95;3.00;;;;;;;;;;5093781;28;20015;-74
2021/11/23 12:42:10;;;;;;;8.10;2.90;;;;;;;;;;5112220;28;20395;-76
2021/11/23 12:44:38;;;;;;;5.78;2.50;;;;;;;;;;5093523;28;20027;-76
2021/11/23 12:47:12;;;;;;;5.10;2.53;;;;;;;;;;5092110;28;20039;-72
2021/11/23 12:49:39;;;;;;;6.00;3.10;;;;;;;;;;5093059;28;20027;-76
2021/11/23 12:52:06;;;;;;;7.90;2.65;;;;;;;;;;5080908;28;20378;-77
2021/11/23 12:54:40;;;;;;;6.32;2.90;;;;;;;;;;5098755;28;20107;-74
2021/11/23 12:57:09;;;;;;;4.90;2.40;;;;;;;;;;5098608;28;20027;-74
2021/11/23 12:59:37;;;;;;;5.80;2.25;;;;;;;;;;5098403;28;20020;-77
2021/11/23 13:02:27;;;;;;;5.82;2.10;;;;;;;;;;5080427;28;20104;-77
2021/11/23 13:04:58;;;;;;;6.88;2.80;;;;;;;;;;5074720;28;20051;-76
2021/11/23 13:07:24;;;;;;;6.55;2.13;;;;;;;;;;5098557;28;20029;-71
2021/11/23 13:09:53;;;;;;;5.20;2.00;;;;;;;;;;5098764;28;20524;-78
2021/11/23 13:12:20;;;;;;;4.88;1.92;;;;;;;;;;5098797;28;20034;-74
2021/11/23 13:14:54;;;;;;;4.60;2.30;;;;;;;;;;5098621;28;20089;-77
2021/11/23 13:17:55;;;;;;;5.35;2.13;;;;;;;;;;5098533;28;20032;-76
2021/11/23 13:20:34;;;;;;;5.20;2.35;;;;;;;;;;5035152;28;20105;-77
2021/11/23 13:23:11;;;;;;;9.02;2.47;;;;;;;;;;5091326;28;20032;-74
2021/11/23 13:25:38;;;;;;;10.85;2.50;;;;;;;;;;5098023;28;20552;-73
2021/11/23 13:28:04;;;;;;;8.38;2.50;;;;;;;;;;5098295;28;20103;-77
2021/11/23 13:30:51;;;;;;;6.22;1.83;;;;;;;;;;5096975;27;20051;-77
2021/11/23 13:33:27;;;;;;;9.77;2.65;;;;;;;;;;5117913;27;20554;-74
2021/11/23 13:35:53;;;;;;;5.20;2.05;;;;;;;;;;5100143;28;20031;-76
2021/11/23 13:38:36;;;;;;;5.63;2.03;;;;;;;;;;5100672;28;20024;-75
2021/11/23 13:41:09;;;;;;;6.18;2.08;;;;;;;;;;5118762;28;20466;-77
2021/11/23 13:43:38;;;;;;;6.95;1.73;;;;;;;;;;5108515;27;20039;-75
2021/11/23 13:46:06;;;;;;;5.93;1.80;;;;;;;;;;5098010;28;20410;-74
2021/11/23 13:48:33;;;;;;;4.47;1.58;;;;;;;;;;5098106;28;20020;-77
2021/11/23 13:51:10;;;;;;;4.57;1.80;;;;;;;;;;5080034;28;20017;-75
2021/11/23 13:53:55;;;;;;;3.58;1.52;;;;;;;;;;5098085;28;20031;-75
2021/11/23 13:56:23;;;;;;;7.28;1.98;;;;;;;;;;5079687;28;20036;-73
2021/11/23 13:58:52;;;;;;;4.32;1.50;;;;;;;;;;5097580;28;20382;-73
2021/11/23 14:01:19;;;;;;;5.00;2.13;;;;;;;;;;5095898;28;20024;-74
2021/11/23 14:04:03;;;;;;;5.20;1.90;;;;;;;;;;5102361;28;20023;-72
2021/11/23 14:06:29;;;;;;;5.70;1.77;;;;;;;;;;5113896;28;20044;-76
2021/11/23 14:09:00;;;;;;;5.82;1.52;;;;;;;;;;5113753;28;20105;-73
2021/11/23 14:11:26;;;;;;;18.77;2.15;;;;;;;;;;5114032;28;20081;-76
2021/11/23 14:13:52;;;;;;;9.02;1.55;;;;;;;;;;5114035;28;20047;-71
2021/11/23 14:16:18;;;;;;;5.22;1.88;;;;;;;;;;5113901;28;20027;-73
2021/11/23 14:18:48;;;;;;;6.40;2.20;;;;;;;;;;5113518;28;20058;-67
2021/11/23 14:21:22;;;;;;;7.07;1.58;;;;;;;;;;5113600;28;20019;-71
2021/11/23 14:23:49;;;;;;;5.25;1.70;;;;;;;;;;5114012;28;20020;-74
2021/11/23 14:26:20;;;;;;;6.40;1.40;;;;;;;;;;5114184;28;20020;-69
2021/11/23 14:28:48;;;;;;;4.03;1.30;;;;;;;;;;5114144;28;20031;-74
2021/11/23 14:31:15;;;;;;;6.40;2.00;;;;;;;;;;5114023;28;20773;-69
2021/11/23 14:33:42;;;;;;;7.22;1.30;;;;;;;;;;5114115;28;20027;-63
2021/11/23 14:36:08;;;;;;;6.32;1.65;;;;;;;;;;5114106;28;20031;-75
2021/11/23 14:38:34;;;;;;;9.60;1.70;;;;;;;;;;5112745;28;20020;-75
2021/11/23 14:41:01;;;;;;;7.70;1.60;;;;;;;;;;5113911;28;20525;-67